Time;durP1;ratioP1;P1;durP2;ratioP2;P2;SDS_P1;SDS_P2;PMS_P1;PMS_P2;Temp;Humidity;BMP_temperature;BMP_pressure;BME280_temperature;BME280_humidity;BME280_pressure;Samples;Min_cycle;Max_cycle;Signal;HPM_P1;HPM_P2
2021/07/08 00:01:13;;;;;;;0.50;0.40;;;17.80;99.90;;;;;;5055706;28;20449;-79
2021/07/08 00:03:40;;;;;;;0.50;0.40;;;17.80;99.90;;;;;;5055519;28;20434;-80
2021/07/08 00:06:07;;;;;;;0.50;0.30;;;17.80;99.90;;;;;;5055963;28;20457;-82
2021/07/08 00:08:33;;;;;;;0.50;0.30;;;17.70;99.90;;;;;;5058873;28;20432;-79
2021/07/08 00:11:01;;;;;;;0.50;0.40;;;17.70;99.90;;;;;;5060330;28;20946;-79
2021/07/08 00:13:29;;;;;;;0.50;0.40;;;17.70;99.90;;;;;;5060064;28;20469;-79
2021/07/08 00:15:58;;;;;;;0.50;0.30;;;17.70;99.90;;;;;;5059566;28;20430;-79
2021/07/08 00:18:27;;;;;;;0.50;0.40;;;17.60;99.90;;;;;;5061551;28;20536;-79
2021/07/08 00:20:54;;;;;;;0.50;0.30;;;17.50;99.90;;;;;;5062799;28;20438;-80
2021/07/08 00:23:22;;;;;;;0.50;0.40;;;17.40;99.90;;;;;;5062950;28;20442;-79
2021/07/08 00:25:51;;;;;;;0.50;0.40;;;17.40;99.90;;;;;;5063842;28;20456;-80
2021/07/08 00:28:18;;;;;;;0.50;0.40;;;17.50;99.90;;;;;;5063280;28;20942;-80
2021/07/08 00:30:47;;;;;;;0.50;0.30;;;17.50;99.90;;;;;;5064274;28;20937;-78
2021/07/08 00:33:15;;;;;;;0.50;0.40;;;17.40;99.90;;;;;;5063241;28;20438;-79
2021/07/08 00:35:42;;;;;;;0.50;0.30;;;17.40;99.90;;;;;;5062953;28;20448;-80
2021/07/08 00:38:10;;;;;;;0.50;0.30;;;17.40;99.90;;;;;;5062760;28;20997;-79
2021/07/08 00:40:37;;;;;;;0.50;0.30;;;17.40;99.90;;;;;;5064254;28;20441;-80
2021/07/08 00:43:04;;;;;;;0.50;0.40;;;17.40;99.90;;;;;;5062554;28;20437;-80
2021/07/08 00:45:31;;;;;;;0.50;0.40;;;17.40;99.90;;;;;;5063028;28;20430;-81
2021/07/08 00:47:58;;;;;;;0.50;0.30;;;17.40;99.90;;;;;;5061630;28;20472;-80
2021/07/08 00:50:29;;;;;;;0.50;0.40;;;17.30;99.90;;;;;;5063662;28;20434;-79
2021/07/08 00:52:56;;;;;;;0.50;0.30;;;17.40;99.90;;;;;;5062519;28;20441;-79
2021/07/08 00:55:23;;;;;;;0.50;0.30;;;17.50;99.90;;;;;;5062993;28;21018;-80
2021/07/08 00:57:53;;;;;;;0.50;0.30;;;17.50;99.90;;;;;;5063267;28;20477;-80
2021/07/08 01:00:22;;;;;;;0.50;0.40;;;17.50;99.90;;;;;;5062888;28;20922;-80
2021/07/08 01:02:50;;;;;;;0.50;0.30;;;17.60;99.90;;;;;;5062425;28;20438;-79
2021/07/08 01:05:17;;;;;;;0.50;0.30;;;17.70;99.90;;;;;;5061030;28;21015;-79
2021/07/08 01:07:46;;;;;;;0.50;0.37;;;17.80;99.90;;;;;;5058427;28;20461;-79
2021/07/08 01:10:13;;;;;;;0.50;0.30;;;17.90;99.90;;;;;;5058381;28;20437;-79
2021/07/08 01:12:41;;;;;;;0.50;0.40;;;18.00;99.90;;;;;;5059551;28;20449;-79
2021/07/08 01:15:10;;;;;;;0.60;0.60;;;18.10;99.90;;;;;;5058025;28;20480;-79
2021/07/08 01:17:37;;;;;;;0.50;0.40;;;18.10;99.90;;;;;;5058735;28;20465;-78
2021/07/08 01:20:05;;;;;;;0.50;0.30;;;18.20;99.90;;;;;;5058943;28;20438;-79
2021/07/08 01:22:33;;;;;;;0.70;0.70;;;18.30;99.90;;;;;;5060247;28;20445;-79
2021/07/08 01:25:00;;;;;;;0.50;0.30;;;18.30;99.90;;;;;;5060416;28;20986;-79
2021/07/08 01:27:27;;;;;;;0.50;0.30;;;18.30;99.90;;;;;;5060460;28;20793;-79
2021/07/08 01:29:54;;;;;;;0.50;0.30;;;18.30;99.90;;;;;;5060148;28;20440;-79
2021/07/08 01:32:21;;;;;;;0.50;0.30;;;18.30;99.90;;;;;;5061001;28;20445;-79
2021/07/08 01:34:48;;;;;;;0.50;0.30;;;18.30;99.90;;;;;;5060946;28;20819;-80
2021/07/08 01:37:16;;;;;;;0.50;0.30;;;18.30;99.90;;;;;;5060790;28;20469;-79
2021/07/08 01:39:45;;;;;;;0.50;0.30;;;18.20;99.90;;;;;;5061124;28;20442;-76
2021/07/08 01:42:12;;;;;;;0.50;0.30;;;18.30;99.90;;;;;;5061855;28;20440;-79
2021/07/08 01:44:39;;;;;;;0.50;0.30;;;18.20;99.90;;;;;;5061434;28;20430;-79
2021/07/08 01:47:07;;;;;;;0.50;0.30;;;18.20;99.90;;;;;;5061095;28;20457;-80
2021/07/08 01:49:34;;;;;;;0.50;0.30;;;18.20;99.90;;;;;;5060561;28;20426;-79
2021/07/08 01:52:01;;;;;;;0.50;0.30;;;18.10;99.90;;;;;;5062446;28;20441;-79
2021/07/08 01:54:27;;;;;;;0.50;0.30;;;18.10;99.90;;;;;;5061836;28;20476;-79
2021/07/08 01:56:55;;;;;;;0.50;0.40;;;18.00;99.90;;;;;;5061432;28;20445;-80
2021/07/08 01:59:22;;;;;;;0.50;0.30;;;17.90;99.90;;;;;;5061347;28;20479;-80
2021/07/08 02:01:49;;;;;;;0.50;0.30;;;17.80;99.90;;;;;;5061200;28;20430;-79
2021/07/08 02:04:15;;;;;;;0.50;0.30;;;17.70;99.90;;;;;;5062115;28;20520;-80
2021/07/08 02:06:42;;;;;;;0.50;0.30;;;17.70;99.90;;;;;;5060876;28;20457;-79
2021/07/08 02:09:09;;;;;;;0.50;0.30;;;17.60;99.90;;;;;;5060810;28;20437;-81
2021/07/08 02:11:37;;;;;;;0.50;0.30;;;17.50;99.90;;;;;;5060836;28;20425;-80
2021/07/08 02:14:05;;;;;;;0.50;0.30;;;17.40;99.90;;;;;;5060777;28;20484;-80
2021/07/08 02:16:32;;;;;;;0.50;0.30;;;17.30;99.90;;;;;;5060593;28;20453;-79
2021/07/08 02:18:59;;;;;;;0.50;0.40;;;17.30;99.90;;;;;;5059929;28;20446;-79
2021/07/08 02:21:26;;;;;;;0.50;0.40;;;17.20;99.90;;;;;;5060518;28;20440;-79
2021/07/08 02:23:53;;;;;;;0.50;0.30;;;17.20;99.90;;;;;;5060291;28;20441;-79
2021/07/08 02:26:20;;;;;;;0.50;0.50;;;17.20;99.90;;;;;;5060281;28;20465;-78
2021/07/08 02:28:46;;;;;;;0.50;0.30;;;17.30;99.90;;;;;;5059364;28;20448;-79
2021/07/08 02:31:14;;;;;;;0.50;0.40;;;17.30;99.90;;;;;;5060161;28;20453;-79
2021/07/08 02:33:41;;;;;;;0.50;0.30;;;17.20;99.90;;;;;;5060357;28;20461;-80
2021/07/08 02:36:08;;;;;;;0.50;0.30;;;17.20;99.90;;;;;;5058869;28;20484;-80
2021/07/08 02:38:36;;;;;;;0.50;0.30;;;17.20;99.90;;;;;;5058802;28;20908;-80
2021/07/08 02:41:04;;;;;;;0.50;0.30;;;17.10;99.90;;;;;;5059173;28;20453;-80
2021/07/08 02:43:31;;;;;;;0.50;0.40;;;17.10;99.90;;;;;;5059541;28;20448;-78
2021/07/08 02:45:58;;;;;;;0.50;0.30;;;17.10;99.90;;;;;;5059701;28;20461;-79
2021/07/08 02:48:26;;;;;;;0.50;0.30;;;17.00;99.90;;;;;;5060314;28;20437;-79
2021/07/08 02:50:55;;;;;;;0.50;0.40;;;17.00;99.90;;;;;;5060245;28;20452;-79
2021/07/08 02:53:23;;;;;;;0.50;0.40;;;16.90;99.90;;;;;;5060683;28;20441;-79
2021/07/08 02:55:50;;;;;;;0.50;0.30;;;16.90;99.90;;;;;;5060019;28;20473;-79
2021/07/08 02:58:18;;;;;;;0.50;0.40;;;16.90;99.90;;;;;;5061371;28;20438;-79
2021/07/08 03:00:46;;;;;;;0.50;0.30;;;16.90;99.90;;;;;;5061224;28;20437;-76
2021/07/08 03:03:13;;;;;;;0.50;0.30;;;16.90;99.90;;;;;;5060748;28;20446;-79
2021/07/08 03:05:41;;;;;;;0.50;0.40;;;16.90;99.90;;;;;;5059227;28;20441;-79
2021/07/08 03:08:08;;;;;;;0.50;0.30;;;16.90;99.90;;;;;;5057935;28;20441;-78
2021/07/08 03:10:35;;;;;;;0.50;0.33;;;16.80;99.90;;;;;;5060177;28;20446;-78
2021/07/08 03:13:01;;;;;;;0.60;0.60;;;16.90;99.90;;;;;;5059716;28;20445;-79
2021/07/08 03:15:28;;;;;;;0.50;0.30;;;16.90;99.90;;;;;;5059923;28;20813;-78
2021/07/08 03:17:57;;;;;;;1.13;0.80;;;16.90;99.90;;;;;;5058234;28;20457;-78
2021/07/08 03:20:25;;;;;;;0.50;0.30;;;17.00;99.90;;;;;;5061053;28;20450;-78
2021/07/08 03:22:53;;;;;;;0.50;0.40;;;16.90;99.90;;;;;;5064826;28;20870;-78
2021/07/08 03:25:21;;;;;;;0.50;0.30;;;16.90;99.90;;;;;;5065705;28;20448;-79
2021/07/08 03:27:49;;;;;;;0.50;0.30;;;16.90;99.90;;;;;;5065508;28;20507;-78
2021/07/08 03:30:19;;;;;;;0.50;0.30;;;16.90;99.90;;;;;;5064508;28;20442;-78
2021/07/08 03:32:47;;;;;;;0.50;0.30;;;16.80;99.90;;;;;;5063310;28;20440;-79
2021/07/08 03:35:14;;;;;;;0.50;0.40;;;16.80;99.90;;;;;;5064868;28;20500;-78
2021/07/08 03:37:41;;;;;;;0.50;0.40;;;16.70;99.90;;;;;;5062430;28;20453;-76
2021/07/08 03:40:12;;;;;;;0.50;0.40;;;16.70;99.90;;;;;;5055919;28;20447;-78
2021/07/08 03:42:39;;;;;;;0.50;0.30;;;16.70;99.90;;;;;;5058428;28;20437;-78
2021/07/08 03:45:07;;;;;;;0.50;0.40;;;16.70;99.90;;;;;;5060404;28;20784;-78
2021/07/08 03:47:34;;;;;;;0.50;0.30;;;16.70;99.90;;;;;;5061063;28;20791;-79
2021/07/08 03:50:00;;;;;;;0.50;0.30;;;16.70;99.90;;;;;;5063738;28;20443;-79
2021/07/08 03:52:27;;;;;;;0.50;0.40;;;16.60;99.90;;;;;;5067025;28;20440;-78
2021/07/08 03:54:54;;;;;;;0.50;0.40;;;16.60;99.90;;;;;;5069975;28;20484;-79
2021/07/08 03:57:22;;;;;;;0.50;0.40;;;16.60;99.90;;;;;;5067555;28;20457;-78
2021/07/08 03:59:49;;;;;;;0.50;0.30;;;16.50;99.90;;;;;;5067026;28;20445;-80
2021/07/08 04:02:15;;;;;;;0.50;0.40;;;16.50;99.90;;;;;;5068763;28;20437;-80
2021/07/08 04:04:42;;;;;;;0.80;0.80;;;16.50;99.90;;;;;;5067790;28;20614;-79
2021/07/08 04:07:09;;;;;;;0.50;0.40;;;16.50;99.90;;;;;;5068647;28;20453;-79
2021/07/08 04:09:36;;;;;;;0.50;0.40;;;16.50;99.90;;;;;;5068441;28;20438;-80
2021/07/08 04:12:04;;;;;;;0.50;0.30;;;16.50;99.90;;;;;;5069990;28;20512;-79
2021/07/08 04:14:32;;;;;;;0.50;0.30;;;16.60;99.90;;;;;;5070594;28;20442;-79
2021/07/08 04:16:59;;;;;;;0.50;0.40;;;16.50;99.90;;;;;;5068396;28;20465;-79
2021/07/08 04:19:25;;;;;;;0.50;0.33;;;16.50;99.90;;;;;;5070782;28;20456;-79
2021/07/08 04:21:52;;;;;;;0.50;0.40;;;16.50;99.90;;;;;;5071296;28;20443;-79
2021/07/08 04:24:19;;;;;;;0.50;0.30;;;16.50;99.90;;;;;;5071065;28;20433;-78
2021/07/08 04:26:46;;;;;;;0.50;0.40;;;16.50;99.90;;;;;;5070432;28;20484;-79
2021/07/08 04:29:12;;;;;;;0.50;0.40;;;16.50;99.90;;;;;;5070164;28;20447;-80
2021/07/08 04:31:40;;;;;;;0.50;0.37;;;16.60;99.90;;;;;;5066527;28;20444;-79
2021/07/08 04:34:07;;;;;;;0.50;0.40;;;16.70;99.90;;;;;;5065829;28;20441;-79
2021/07/08 04:36:34;;;;;;;0.50;0.37;;;16.70;99.90;;;;;;5065615;28;20473;-79
2021/07/08 04:39:01;;;;;;;0.50;0.30;;;16.70;99.90;;;;;;5066210;28;20524;-79
2021/07/08 04:41:28;;;;;;;0.50;0.30;;;16.70;99.90;;;;;;5066390;28;20447;-80
2021/07/08 04:43:54;;;;;;;0.50;0.40;;;16.60;99.90;;;;;;5068959;28;20448;-78
2021/07/08 04:46:21;;;;;;;0.50;0.40;;;16.60;99.90;;;;;;5067349;28;20469;-79
2021/07/08 04:48:49;;;;;;;0.50;0.40;;;16.60;99.90;;;;;;5065854;28;20438;-79
2021/07/08 04:51:16;;;;;;;0.50;0.30;;;16.70;99.90;;;;;;5064719;28;20441;-79
2021/07/08 04:53:44;;;;;;;0.50;0.30;;;16.80;99.90;;;;;;5063340;28;20467;-80
2021/07/08 04:56:10;;;;;;;0.50;0.30;;;16.90;99.90;;;;;;5063504;28;20481;-79
2021/07/08 04:58:37;;;;;;;0.50;0.30;;;17.00;99.90;;;;;;5063763;28;20862;-79
2021/07/08 05:01:04;;;;;;;0.50;0.30;;;17.10;99.90;;;;;;5063384;28;20442;-80
2021/07/08 05:03:31;;;;;;;0.50;0.30;;;17.20;99.90;;;;;;5063248;28;20464;-79
2021/07/08 05:05:59;;;;;;;0.50;0.30;;;17.30;99.90;;;;;;5063687;28;20434;-79
2021/07/08 05:08:25;;;;;;;0.50;0.30;;;17.50;99.90;;;;;;5063889;28;20422;-79
2021/07/08 05:10:52;;;;;;;0.50;0.33;;;17.60;99.90;;;;;;5063277;28;20433;-79
2021/07/08 05:13:19;;;;;;;0.50;0.40;;;17.70;99.90;;;;;;5064808;28;20437;-79
2021/07/08 05:15:46;;;;;;;0.50;0.30;;;17.80;99.90;;;;;;5064587;28;20480;-78
2021/07/08 05:18:13;;;;;;;0.50;0.30;;;17.90;99.90;;;;;;5063958;28;20453;-79
2021/07/08 05:20:40;;;;;;;0.50;0.30;;;18.00;99.90;;;;;;5064724;28;20819;-79
2021/07/08 05:23:15;;;;;;;0.50;0.30;;;18.10;99.90;;;;;;5063386;28;20452;-79
2021/07/08 05:25:42;;;;;;;0.50;0.40;;;18.20;99.90;;;;;;5062179;28;20487;-79
2021/07/08 05:28:10;;;;;;;0.50;0.33;;;18.30;99.90;;;;;;5064924;28;20461;-78
2021/07/08 05:30:36;;;;;;;0.50;0.30;;;18.30;99.90;;;;;;5066038;28;20445;-80
2021/07/08 05:33:03;;;;;;;0.50;0.30;;;18.40;99.90;;;;;;5064040;28;20438;-79
2021/07/08 05:35:30;;;;;;;0.50;0.30;;;18.50;99.90;;;;;;5062077;28;20484;-79
2021/07/08 05:37:57;;;;;;;0.50;0.40;;;18.60;99.90;;;;;;5061242;28;20466;-80
2021/07/08 05:40:25;;;;;;;0.50;0.30;;;18.70;99.90;;;;;;5059918;28;20445;-80
2021/07/08 05:42:52;;;;;;;0.50;0.30;;;18.90;99.90;;;;;;5051252;28;20455;-79
2021/07/08 05:45:20;;;;;;;0.50;0.30;;;18.90;99.90;;;;;;5061698;28;20433;-81
2021/07/08 05:47:47;;;;;;;0.50;0.30;;;19.00;99.90;;;;;;5063797;28;20459;-80
2021/07/08 05:50:14;;;;;;;0.50;0.30;;;19.20;99.90;;;;;;5053618;28;20441;-80
2021/07/08 05:52:40;;;;;;;0.50;0.30;;;19.30;99.90;;;;;;5039640;28;20453;-78
2021/07/08 05:55:08;;;;;;;0.50;0.30;;;19.50;99.90;;;;;;5040641;28;20485;-78
2021/07/08 05:57:36;;;;;;;0.50;0.30;;;19.70;99.90;;;;;;5041767;28;20465;-80
2021/07/08 06:00:05;;;;;;;0.50;0.40;;;19.80;99.90;;;;;;5041274;28;20435;-79
2021/07/08 06:02:32;;;;;;;1.60;1.50;;;19.90;99.90;;;;;;5043149;28;20450;-80
2021/07/08 06:04:59;;;;;;;0.50;0.30;;;20.00;99.90;;;;;;5042972;28;20821;-79
2021/07/08 06:07:26;;;;;;;0.50;0.30;;;20.10;99.90;;;;;;5055498;28;20466;-80
2021/07/08 06:09:53;;;;;;;0.50;0.30;;;20.20;99.90;;;;;;5062764;28;20788;-79
2021/07/08 06:12:22;;;;;;;0.50;0.30;;;20.30;99.90;;;;;;5062267;28;20796;-79
2021/07/08 06:14:50;;;;;;;0.50;0.30;;;20.40;99.90;;;;;;5062052;28;20480;-79
2021/07/08 06:17:17;;;;;;;0.50;0.30;;;20.50;99.90;;;;;;5061577;28;20525;-80
2021/07/08 06:19:43;;;;;;;0.50;0.30;;;20.50;99.90;;;;;;5062317;28;20442;-78
2021/07/08 06:22:10;;;;;;;0.50;0.30;;;20.60;99.90;;;;;;5061360;28;20434;-79
2021/07/08 06:24:37;;;;;;;0.50;0.40;;;20.70;99.90;;;;;;5061393;28;20520;-79
2021/07/08 06:27:04;;;;;;;0.50;0.30;;;20.80;99.90;;;;;;5061171;28;20467;-80
2021/07/08 06:29:30;;;;;;;0.50;0.40;;;20.90;99.90;;;;;;5061204;28;20442;-78
2021/07/08 06:31:58;;;;;;;0.50;0.30;;;20.90;99.90;;;;;;5061757;28;20446;-79
2021/07/08 06:34:25;;;;;;;0.70;0.70;;;21.10;99.90;;;;;;5062176;28;20440;-79
2021/07/08 06:36:52;;;;;;;0.50;0.30;;;21.30;99.90;;;;;;5062123;28;20482;-79
2021/07/08 06:39:19;;;;;;;0.50;0.30;;;21.40;99.90;;;;;;5061047;28;20457;-79
2021/07/08 06:41:45;;;;;;;0.50;0.30;;;21.60;99.90;;;;;;5062131;28;20458;-79
2021/07/08 06:44:12;;;;;;;0.50;0.50;;;21.60;99.90;;;;;;5061078;28;20447;-78
2021/07/08 06:46:39;;;;;;;0.50;0.30;;;21.70;99.90;;;;;;5060012;28;20462;-79
2021/07/08 06:49:08;;;;;;;0.50;0.30;;;21.70;99.90;;;;;;5060241;28;20475;-79
2021/07/08 06:51:35;;;;;;;0.50;0.30;;;22.20;99.90;;;;;;5060453;28;20444;-78
2021/07/08 06:54:02;;;;;;;0.50;0.30;;;22.80;99.90;;;;;;5061125;28;20442;-78
2021/07/08 06:56:29;;;;;;;2.00;1.90;;;23.30;99.90;;;;;;5060516;28;20477;-78
2021/07/08 06:58:56;;;;;;;0.50;0.40;;;23.80;99.90;;;;;;5060880;28;20436;-78
2021/07/08 07:01:23;;;;;;;0.83;0.83;;;24.70;99.90;;;;;;5060464;28;20445;-79
2021/07/08 07:03:50;;;;;;;0.50;0.30;;;25.60;99.90;;;;;;5062038;28;20441;-79
2021/07/08 07:06:18;;;;;;;0.50;0.30;;;26.80;99.90;;;;;;5061764;28;20966;-79
2021/07/08 07:08:45;;;;;;;0.50;0.37;;;28.20;99.90;;;;;;5061394;28;20434;-76
2021/07/08 07:11:12;;;;;;;0.50;0.30;;;29.10;99.90;;;;;;5060378;28;20457;-79
2021/07/08 07:13:38;;;;;;;0.50;0.30;;;29.60;99.90;;;;;;5061761;28;20944;-79
2021/07/08 07:16:06;;;;;;;0.50;0.30;;;30.50;94.30;;;;;;5061703;28;20488;-79
2021/07/08 07:18:32;;;;;;;0.50;0.30;;;30.90;90.40;;;;;;5060600;28;20438;-78
2021/07/08 07:20:59;;;;;;;0.50;0.30;;;31.60;90.50;;;;;;5060989;28;20455;-78
2021/07/08 07:23:27;;;;;;;0.50;0.30;;;32.90;82.00;;;;;;5062541;28;20462;-79
2021/07/08 07:25:54;;;;;;;0.50;0.30;;;33.90;71.40;;;;;;5061791;28;20453;-79
2021/07/08 07:28:21;;;;;;;0.47;0.30;;;34.80;67.50;;;;;;5064552;28;20433;-80
2021/07/08 07:30:49;;;;;;;0.40;0.30;;;35.60;64.00;;;;;;5065179;28;20456;-76
2021/07/08 07:33:15;;;;;;;0.40;0.30;;;35.20;59.70;;;;;;5065822;28;20445;-78
2021/07/08 07:35:42;;;;;;;0.50;0.40;;;35.60;61.10;;;;;;5064897;28;20471;-80
2021/07/08 07:38:11;;;;;;;0.40;0.30;;;36.80;58.10;;;;;;5065014;28;20816;-79
2021/07/08 07:40:40;;;;;;;0.40;0.30;;;36.00;56.70;;;;;;5065049;28;20442;-80
2021/07/08 07:43:07;;;;;;;0.40;0.30;;;36.40;57.00;;;;;;5065675;28;20443;-79
2021/07/08 07:45:34;;;;;;;0.40;0.30;;;37.40;55.80;;;;;;5065154;28;20954;-78
2021/07/08 07:48:01;;;;;;;0.40;0.30;;;37.60;54.70;;;;;;5063659;28;20467;-78
2021/07/08 07:50:31;;;;;;;0.40;0.30;;;37.70;54.80;;;;;;5065345;28;20443;-79
2021/07/08 07:52:58;;;;;;;0.40;0.30;;;38.10;53.60;;;;;;5064686;28;20441;-78
2021/07/08 07:55:27;;;;;;;2.10;1.23;;;38.00;51.80;;;;;;5064662;28;20441;-79
2021/07/08 07:57:56;;;;;;;0.40;0.30;;;38.10;51.60;;;;;;5065498;28;20514;-79
2021/07/08 08:00:23;;;;;;;2.20;2.00;;;37.30;51.30;;;;;;5064538;28;20817;-78
2021/07/08 08:02:50;;;;;;;0.40;0.30;;;36.10;53.20;;;;;;5064357;28;20450;-77
2021/07/08 08:05:37;;;;;;;0.40;0.30;;;35.10;55.60;;;;;;5064670;28;20507;-79
2021/07/08 08:10:51;;;;;;;1.17;0.83;;;32.80;57.30;;;;;;5063390;28;20511;-77
2021/07/08 08:13:20;;;;;;;0.50;0.30;;;31.80;58.70;;;;;;5062876;28;20969;-76
2021/07/08 08:15:50;;;;;;;0.50;0.30;;;31.90;61.40;;;;;;5064125;28;20439;-79
2021/07/08 08:18:17;;;;;;;0.50;0.30;;;32.50;60.10;;;;;;5064417;28;20446;-78
2021/07/08 08:20:43;;;;;;;0.50;0.30;;;32.50;59.00;;;;;;5063418;28;20468;-78
2021/07/08 08:23:10;;;;;;;0.47;0.30;;;33.00;60.70;;;;;;5064198;28;20445;-79
2021/07/08 08:25:37;;;;;;;0.50;0.30;;;33.10;59.00;;;;;;5063561;28;20474;-79
2021/07/08 08:28:04;;;;;;;0.50;0.30;;;33.20;58.60;;;;;;5063125;28;20458;-79
2021/07/08 08:30:32;;;;;;;0.40;0.30;;;33.70;58.00;;;;;;5063300;28;21038;-79
2021/07/08 08:32:59;;;;;;;0.50;0.30;;;34.70;57.60;;;;;;5062843;28;20444;-79
2021/07/08 08:35:26;;;;;;;0.40;0.30;;;36.00;58.50;;;;;;5064242;28;20443;-79
2021/07/08 08:37:53;;;;;;;0.40;0.30;;;36.60;53.50;;;;;;5060956;28;20468;-79
2021/07/08 08:40:21;;;;;;;0.40;0.30;;;37.20;53.20;;;;;;5063038;28;20440;-78
2021/07/08 08:42:49;;;;;;;1.17;0.70;;;37.50;54.50;;;;;;5062369;28;20483;-79
2021/07/08 08:45:18;;;;;;;0.40;0.30;;;38.40;51.10;;;;;;5063821;28;20453;-80
2021/07/08 08:47:58;;;;;;;2.20;2.10;;;38.50;50.00;;;;;;5063468;28;20478;-77
2021/07/08 08:50:25;;;;;;;0.40;0.30;;;37.20;50.10;;;;;;5064164;28;20480;-79
2021/07/08 08:52:53;;;;;;;0.40;0.30;;;37.20;52.50;;;;;;5065789;28;20445;-78
2021/07/08 08:55:20;;;;;;;0.40;0.30;;;37.30;52.30;;;;;;5065202;28;20444;-80
2021/07/08 08:57:46;;;;;;;0.40;0.30;;;36.60;50.50;;;;;;5064002;28;20555;-79
2021/07/08 09:00:38;;;;;;;0.40;0.30;;;35.70;52.60;;;;;;5065115;28;20446;-79
2021/07/08 09:03:08;;;;;;;0.83;0.83;;;35.60;54.20;;;;;;5054043;28;20961;-80
2021/07/08 09:05:36;;;;;;;0.40;0.30;;;36.10;55.40;;;;;;5062654;28;20444;-79
2021/07/08 09:08:21;;;;;;;0.40;0.30;;;37.70;53.60;;;;;;5061661;28;20535;-79
2021/07/08 09:10:51;;;;;;;0.40;0.30;;;38.70;50.70;;;;;;5043910;28;20431;-77
2021/07/08 09:13:18;;;;;;;0.40;0.30;;;38.50;49.70;;;;;;5043433;28;20453;-79
2021/07/08 09:15:45;;;;;;;0.40;0.40;;;38.90;49.40;;;;;;5044372;28;20436;-79
2021/07/08 09:18:16;;;;;;;0.50;0.50;;;39.60;49.70;;;;;;5043918;28;20468;-80
2021/07/08 09:20:43;;;;;;;0.60;0.60;;;40.10;47.90;;;;;;5043253;28;20434;-79
2021/07/08 09:23:15;;;;;;;0.40;0.30;;;39.30;47.20;;;;;;5043653;28;20450;-79
2021/07/08 09:25:44;;;;;;;0.97;0.90;;;38.40;48.70;;;;;;5042472;28;20460;-77
2021/07/08 09:28:14;;;;;;;0.40;0.30;;;37.60;48.90;;;;;;5040860;28;20486;-78
2021/07/08 09:30:42;;;;;;;0.50;0.40;;;36.80;49.80;;;;;;5040740;28;20850;-78
2021/07/08 09:33:45;;;;;;;0.77;0.77;;;35.90;52.30;;;;;;5040513;28;20456;-78
2021/07/08 09:36:16;;;;;;;0.47;0.30;;;35.50;53.10;;;;;;5043980;28;20481;-79
2021/07/08 09:38:45;;;;;;;1.73;1.73;;;33.80;55.00;;;;;;5060037;28;20435;-78
2021/07/08 09:41:16;;;;;;;0.70;0.70;;;33.20;56.00;;;;;;5060389;28;20509;-78
2021/07/08 09:43:43;;;;;;;0.50;0.30;;;33.20;55.70;;;;;;5060905;28;20563;-79
2021/07/08 09:46:11;;;;;;;3.50;1.73;;;33.30;57.10;;;;;;5061998;28;20457;-79
2021/07/08 09:48:39;;;;;;;0.50;0.30;;;33.00;55.10;;;;;;5061401;28;20450;-79
2021/07/08 09:51:06;;;;;;;0.50;0.30;;;32.80;55.30;;;;;;5060162;28;20764;-78
2021/07/08 09:53:49;;;;;;;0.47;0.30;;;33.00;55.60;;;;;;5053221;28;20446;-77
2021/07/08 09:56:42;;;;;;;1.27;1.17;;;33.00;55.70;;;;;;5055450;28;20471;-78
2021/07/08 09:59:08;;;;;;;0.50;0.30;;;32.60;55.20;;;;;;5055515;28;20449;-79
2021/07/08 10:01:35;;;;;;;0.50;0.30;;;32.20;56.90;;;;;;5055969;28;20443;-77
2021/07/08 10:04:02;;;;;;;0.50;0.30;;;31.50;56.40;;;;;;5055247;28;20446;-78
2021/07/08 10:06:32;;;;;;;0.50;0.30;;;31.80;59.90;;;;;;5055467;28;20481;-79
2021/07/08 10:09:00;;;;;;;0.80;0.73;;;33.00;58.10;;;;;;5055935;28;20490;-79
2021/07/08 10:11:28;;;;;;;0.50;0.30;;;33.60;56.90;;;;;;5056211;28;20441;-79
2021/07/08 10:13:57;;;;;;;0.40;0.30;;;34.00;56.10;;;;;;5056595;28;20524;-78
2021/07/08 10:16:24;;;;;;;0.40;0.30;;;34.40;57.00;;;;;;5057207;28;20898;-79
2021/07/08 10:18:55;;;;;;;3.90;1.20;;;34.90;57.60;;;;;;5059487;28;20944;-79
2021/07/08 10:21:22;;;;;;;0.50;0.30;;;35.30;56.70;;;;;;5059803;28;20426;-79
2021/07/08 10:23:50;;;;;;;0.40;0.30;;;35.60;55.80;;;;;;5061150;28;20443;-78
2021/07/08 10:26:18;;;;;;;0.40;0.30;;;35.60;55.20;;;;;;5058772;28;20456;-78
2021/07/08 10:28:47;;;;;;;0.43;0.30;;;35.10;54.40;;;;;;5058351;28;20438;-79
2021/07/08 10:31:17;;;;;;;0.40;0.30;;;33.90;56.50;;;;;;5059085;28;20438;-79
2021/07/08 10:34:06;;;;;;;0.40;0.30;;;33.80;58.30;;;;;;5058214;28;20806;-79
2021/07/08 10:36:33;;;;;;;0.50;0.30;;;33.00;57.00;;;;;;5057437;28;20467;-77
2021/07/08 10:39:03;;;;;;;0.50;0.40;;;32.80;58.70;;;;;;5056989;28;20442;-77
2021/07/08 10:41:55;;;;;;;0.50;0.30;;;32.10;58.50;;;;;;5056672;28;20444;-77
2021/07/08 10:44:44;;;;;;;1.17;0.50;;;31.60;60.80;;;;;;5056600;28;20420;-78
2021/07/08 10:47:32;;;;;;;0.50;0.30;;;30.90;62.70;;;;;;5057980;28;20484;-78
2021/07/08 10:49:59;;;;;;;0.50;0.30;;;30.50;65.20;;;;;;5056637;28;20449;-79
2021/07/08 10:52:42;;;;;;;0.63;0.63;;;30.30;64.40;;;;;;5057594;28;20438;-77
2021/07/08 10:55:09;;;;;;;0.50;0.30;;;30.00;64.40;;;;;;5057514;28;20448;-78
2021/07/08 10:57:39;;;;;;;0.50;0.30;;;29.40;65.00;;;;;;5056867;28;20500;-79
2021/07/08 11:00:08;;;;;;;0.50;0.30;;;29.20;67.30;;;;;;5056975;28;20440;-77
2021/07/08 11:02:49;;;;;;;0.50;0.30;;;28.90;67.60;;;;;;5055601;28;20525;-79
2021/07/08 11:05:56;;;;;;;0.50;0.33;;;28.60;70.10;;;;;;5057163;28;20439;-78
2021/07/08 11:08:51;;;;;;;0.50;0.30;;;28.60;72.30;;;;;;5054660;28;20475;-81
2021/07/08 11:11:51;;;;;;;0.50;0.30;;;28.20;73.80;;;;;;5060159;28;20454;-79
2021/07/08 11:14:28;;;;;;;0.50;0.30;;;28.10;77.10;;;;;;5056619;28;20439;-79
2021/07/08 11:16:59;;;;;;;1.17;1.03;;;28.10;79.00;;;;;;5055957;28;20541;-78
2021/07/08 11:19:38;;;;;;;0.70;0.60;;;27.70;77.80;;;;;;5055505;28;20425;-78
2021/07/08 11:22:09;;;;;;;0.50;0.40;;;27.40;80.30;;;;;;5056108;28;20525;-78
2021/07/08 11:24:45;;;;;;;0.50;0.30;;;27.30;83.90;;;;;;5055970;28;20438;-78
2021/07/08 11:27:14;;;;;;;0.50;0.37;;;27.50;85.90;;;;;;5056110;28;20599;-78
2021/07/08 11:29:44;;;;;;;0.50;0.30;;;27.80;85.30;;;;;;5057202;28;20447;-78
2021/07/08 11:32:23;;;;;;;0.50;0.30;;;27.90;80.40;;;;;;5056370;28;20446;-78
2021/07/08 11:34:52;;;;;;;0.50;0.30;;;27.90;85.90;;;;;;5057190;28;20450;-78
2021/07/08 11:37:21;;;;;;;0.50;0.30;;;28.20;84.20;;;;;;5056139;28;20475;-79
2021/07/08 11:39:53;;;;;;;0.97;0.97;;;28.50;91.50;;;;;;5057346;28;20436;-76
2021/07/08 11:42:22;;;;;;;4.37;4.10;;;28.80;90.30;;;;;;5057446;28;20435;-79
2021/07/08 11:44:52;;;;;;;0.50;0.30;;;29.10;86.10;;;;;;5057139;28;20445;-78
2021/07/08 11:47:19;;;;;;;0.50;0.30;;;29.10;83.40;;;;;;5056241;28;20488;-78
2021/07/08 11:49:48;;;;;;;0.50;0.40;;;29.00;79.50;;;;;;5055795;28;20437;-78
2021/07/08 11:52:27;;;;;;;1.00;0.87;;;28.80;79.20;;;;;;5056407;28;20434;-78
2021/07/08 11:54:55;;;;;;;0.50;0.30;;;28.40;79.90;;;;;;5055586;28;20427;-78
2021/07/08 11:57:22;;;;;;;1.33;1.23;;;28.90;80.50;;;;;;5057183;28;20464;-78
2021/07/08 11:59:50;;;;;;;0.50;0.30;;;29.60;81.40;;;;;;5057998;28;20451;-76
2021/07/08 12:02:36;;;;;;;0.50;0.40;;;30.10;77.50;;;;;;5057208;28;20451;-80
2021/07/08 12:05:14;;;;;;;0.50;0.30;;;30.30;72.10;;;;;;5057231;28;20436;-78
2021/07/08 12:07:43;;;;;;;0.50;0.40;;;29.70;72.60;;;;;;5056858;28;20484;-78
2021/07/08 12:10:11;;;;;;;0.50;0.30;;;29.50;75.50;;;;;;5056872;28;20474;-78
2021/07/08 12:12:39;;;;;;;0.50;0.30;;;29.70;74.70;;;;;;5058280;28;20447;-79
2021/07/08 12:15:09;;;;;;;0.50;0.30;;;29.90;74.70;;;;;;5060564;28;20456;-78
2021/07/08 12:17:36;;;;;;;0.50;0.30;;;29.90;76.50;;;;;;5060507;28;20461;-79
2021/07/08 12:20:11;;;;;;;0.50;0.40;;;30.10;77.30;;;;;;5062047;28;20445;-79
2021/07/08 12:22:53;;;;;;;0.50;0.40;;;29.70;72.30;;;;;;5059289;28;20436;-78
2021/07/08 12:25:20;;;;;;;0.50;0.30;;;29.00;73.70;;;;;;5059878;28;20432;-77
2021/07/08 12:27:47;;;;;;;0.50;0.30;;;28.70;73.80;;;;;;5058779;28;20493;-76
2021/07/08 12:30:24;;;;;;;0.50;0.30;;;28.60;75.10;;;;;;5060202;28;21134;-78
2021/07/08 12:33:08;;;;;;;0.63;0.63;;;28.80;78.10;;;;;;5060384;28;20429;-78
2021/07/08 12:35:43;;;;;;;0.50;0.30;;;28.90;77.70;;;;;;5060165;28;20424;-78
2021/07/08 12:38:12;;;;;;;0.50;0.30;;;29.20;81.50;;;;;;5060005;28;20430;-78
2021/07/08 12:40:39;;;;;;;0.50;0.30;;;29.40;80.30;;;;;;5061846;28;20435;-77
2021/07/08 12:43:10;;;;;;;0.50;0.40;;;29.50;75.30;;;;;;5060026;28;20431;-78
2021/07/08 12:45:39;;;;;;;0.50;0.50;;;29.60;76.60;;;;;;5059332;28;20445;-77
2021/07/08 12:48:09;;;;;;;0.60;0.50;;;29.40;71.60;;;;;;5059127;28;21271;-78
2021/07/08 12:50:39;;;;;;;0.60;0.47;;;29.00;69.50;;;;;;5058859;28;20442;-78
2021/07/08 12:53:07;;;;;;;0.50;0.40;;;28.60;70.40;;;;;;5058241;28;20473;-78
2021/07/08 12:55:41;;;;;;;0.50;0.30;;;28.50;75.10;;;;;;5058467;28;20437;-78
2021/07/08 12:58:09;;;;;;;0.50;0.30;;;28.50;76.40;;;;;;5059742;28;20458;-79
2021/07/08 13:00:38;;;;;;;0.50;0.40;;;28.70;75.70;;;;;;5060201;28;20458;-78